Time;durP1;ratioP1;P1;durP2;ratioP2;P2;SDS_P1;SDS_P2;PMS_P1;PMS_P2;Temp;Humidity;BMP_temperature;BMP_pressure;BME280_temperature;BME280_humidity;BME280_pressure;Samples;Min_cycle;Max_cycle;Signal;HPM_P1;HPM_P2
2023/09/05 00:00:10;;;;;;;8.87;7.40;;;16.80;99.90;;;;;;5120019;27;20046;-73
2023/09/05 00:02:37;;;;;;;10.10;7.40;;;16.70;99.90;;;;;;5155565;27;20054;-75
2023/09/05 00:05:05;;;;;;;10.20;7.17;;;16.70;99.90;;;;;;5155679;27;20050;-73
2023/09/05 00:07:31;;;;;;;7.60;6.67;;;16.70;99.90;;;;;;5155766;27;20478;-73
2023/09/05 00:09:58;;;;;;;9.57;7.40;;;16.70;99.90;;;;;;5155429;27;20050;-73
2023/09/05 00:12:27;;;;;;;9.47;8.37;;;16.60;99.90;;;;;;5137395;27;20047;-73
2023/09/05 00:14:53;;;;;;;10.27;7.70;;;16.60;99.90;;;;;;5136701;27;20038;-73
2023/09/05 00:17:18;;;;;;;9.77;7.60;;;16.60;99.90;;;;;;5136624;27;20406;-73
2023/09/05 00:19:44;;;;;;;9.40;8.17;;;16.50;99.90;;;;;;5136858;27;20053;-73
2023/09/05 00:22:11;;;;;;;9.20;8.20;;;16.50;99.90;;;;;;5136897;27;20050;-73
2023/09/05 00:24:38;;;;;;;9.00;7.47;;;16.50;99.90;;;;;;5136955;27;20187;-73
2023/09/05 00:27:09;;;;;;;9.97;8.60;;;16.50;99.90;;;;;;5136814;27;20482;-73
2023/09/05 00:29:35;;;;;;;10.43;8.93;;;16.40;99.90;;;;;;5136969;27;20069;-73
2023/09/05 00:32:03;;;;;;;9.77;8.30;;;16.40;99.90;;;;;;5136662;27;20470;-73
2023/09/05 00:34:31;;;;;;;9.23;8.23;;;16.40;99.90;;;;;;5155127;27;20103;-73
2023/09/05 00:37:00;;;;;;;9.87;7.77;;;16.40;99.90;;;;;;5136066;27;20625;-73
2023/09/05 00:39:29;;;;;;;10.70;8.67;;;16.30;99.90;;;;;;5136812;27;20046;-74
2023/09/05 00:41:56;;;;;;;10.30;7.97;;;16.30;99.90;;;;;;5136466;27;20043;-73
2023/09/05 00:44:25;;;;;;;10.40;7.70;;;16.40;99.90;;;;;;5155168;27;20038;-73
2023/09/05 00:46:54;;;;;;;10.97;7.50;;;16.40;99.90;;;;;;5136762;27;20118;-73
2023/09/05 00:49:27;;;;;;;11.97;7.97;;;16.40;99.90;;;;;;5119944;27;20126;-73
2023/09/05 00:51:57;;;;;;;9.17;7.27;;;16.50;99.90;;;;;;5135456;27;20046;-74
2023/09/05 00:54:23;;;;;;;10.07;8.03;;;16.50;99.90;;;;;;5136852;27;20125;-74
2023/09/05 00:56:50;;;;;;;11.23;7.43;;;16.50;99.90;;;;;;5119216;27;20082;-73
2023/09/05 00:59:17;;;;;;;8.83;7.10;;;16.50;99.90;;;;;;5136603;27;20039;-74
2023/09/05 01:01:43;;;;;;;9.10;6.93;;;16.40;99.90;;;;;;5119429;27;20042;-74
2023/09/05 01:04:09;;;;;;;9.17;8.03;;;16.40;99.90;;;;;;5136882;27;20479;-73
2023/09/05 01:07:09;;;;;;;11.53;8.83;;;16.40;99.90;;;;;;5136470;27;20050;-73
2023/09/05 01:10:18;;;;;;;10.20;8.33;;;16.30;99.90;;;;;;5119565;27;20061;-73
2023/09/05 01:12:43;;;;;;;9.63;8.10;;;16.30;99.90;;;;;;5037243;28;20044;-75
2023/09/05 01:15:09;;;;;;;10.63;7.90;;;16.30;99.90;;;;;;5136907;27;20505;-73
2023/09/05 01:17:35;;;;;;;12.10;8.37;;;16.30;99.90;;;;;;5119260;27;20043;-73
2023/09/05 01:20:04;;;;;;;9.73;8.43;;;16.20;99.90;;;;;;5118933;27;20046;-73
2023/09/05 01:22:58;;;;;;;9.57;8.13;;;16.20;99.90;;;;;;5136550;27;20108;-73
2023/09/05 01:25:25;;;;;;;10.93;7.77;;;16.20;99.90;;;;;;5136420;27;20053;-73
2023/09/05 01:27:51;;;;;;;10.93;8.90;;;16.20;99.90;;;;;;5136011;27;20055;-73
2023/09/05 01:30:17;;;;;;;9.67;8.33;;;16.10;99.90;;;;;;5136335;27;20121;-73
2023/09/05 01:32:44;;;;;;;11.20;8.80;;;16.20;99.90;;;;;;5136174;27;20047;-73
2023/09/05 01:35:10;;;;;;;11.87;8.90;;;16.20;99.90;;;;;;5135397;27;20132;-73
2023/09/05 01:37:36;;;;;;;10.67;8.10;;;16.10;99.90;;;;;;5136249;27;20047;-73
2023/09/05 01:40:02;;;;;;;11.73;8.60;;;16.10;99.90;;;;;;5135873;27;20140;-73
2023/09/05 01:42:28;;;;;;;11.47;9.70;;;16.10;99.90;;;;;;5102331;27;20047;-73
2023/09/05 01:44:53;;;;;;;9.47;8.37;;;16.10;99.90;;;;;;5135693;27;20110;-74
2023/09/05 01:47:19;;;;;;;10.70;8.90;;;16.00;99.90;;;;;;5154284;27;20042;-73
2023/09/05 01:49:44;;;;;;;11.30;9.10;;;16.00;99.90;;;;;;5136033;27;20367;-73
2023/09/05 01:52:10;;;;;;;10.17;9.10;;;16.00;99.90;;;;;;5153651;27;20043;-73
2023/09/05 01:54:39;;;;;;;11.40;10.13;;;16.00;99.90;;;;;;5118685;27;20047;-73
2023/09/05 01:57:05;;;;;;;12.47;9.53;;;16.00;99.90;;;;;;5135707;27;20047;-73
2023/09/05 01:59:31;;;;;;;11.20;9.23;;;15.90;99.90;;;;;;5154150;27;20394;-74
2023/09/05 02:01:56;;;;;;;11.20;9.63;;;15.90;99.90;;;;;;5153926;27;20412;-73
2023/09/05 02:04:22;;;;;;;11.77;9.67;;;15.90;99.90;;;;;;5138388;27;20042;-73
2023/09/05 02:06:48;;;;;;;11.67;9.70;;;15.80;99.90;;;;;;5122842;27;20047;-73
2023/09/05 02:09:13;;;;;;;10.33;8.83;;;15.80;99.90;;;;;;5139340;27;20050;-73
2023/09/05 02:11:39;;;;;;;11.13;9.17;;;15.80;99.90;;;;;;5139759;27;20387;-73
2023/09/05 02:14:05;;;;;;;11.60;10.00;;;15.80;99.90;;;;;;5157368;27;20134;-73
2023/09/05 02:16:33;;;;;;;10.50;9.07;;;15.70;99.90;;;;;;5139295;27;20057;-74
2023/09/05 02:18:58;;;;;;;11.87;9.27;;;15.70;99.90;;;;;;5157484;27;20394;-74
2023/09/05 02:21:24;;;;;;;11.07;9.67;;;15.70;99.90;;;;;;5139848;27;20046;-74
2023/09/05 02:23:51;;;;;;;10.77;9.53;;;15.70;99.90;;;;;;5139347;27;20091;-73
2023/09/05 02:26:17;;;;;;;12.27;9.40;;;15.70;99.90;;;;;;5157539;27;20424;-74
2023/09/05 02:28:44;;;;;;;13.60;9.67;;;15.70;99.90;;;;;;5139209;27;20047;-73
2023/09/05 02:31:10;;;;;;;11.27;10.07;;;15.70;99.90;;;;;;5122062;27;20510;-73
2023/09/05 02:33:36;;;;;;;11.37;9.87;;;15.70;99.90;;;;;;5157684;27;20081;-73
2023/09/05 02:36:15;;;;;;;12.53;9.50;;;15.60;99.90;;;;;;5138344;27;20098;-74
2023/09/05 02:38:41;;;;;;;11.43;10.20;;;15.60;99.90;;;;;;5157540;27;20047;-73
2023/09/05 02:41:09;;;;;;;11.70;8.97;;;15.60;99.90;;;;;;5138792;27;20442;-73
2023/09/05 02:43:35;;;;;;;11.03;9.77;;;15.60;99.90;;;;;;5157338;27;20047;-73
2023/09/05 02:46:00;;;;;;;12.20;10.07;;;15.60;99.90;;;;;;5156967;27;20438;-74
2023/09/05 02:48:26;;;;;;;12.00;9.43;;;15.50;99.90;;;;;;5157232;27;20042;-74
2023/09/05 02:51:03;;;;;;;11.03;9.73;;;15.50;99.90;;;;;;5121795;27;20078;-73
2023/09/05 02:53:28;;;;;;;12.53;9.47;;;15.50;99.90;;;;;;5121897;27;20474;-73
2023/09/05 02:55:54;;;;;;;11.23;9.53;;;15.50;99.90;;;;;;5138514;27;20046;-73
2023/09/05 02:58:20;;;;;;;12.17;9.30;;;15.50;99.90;;;;;;5121080;27;20551;-73
2023/09/05 03:00:49;;;;;;;16.07;10.07;;;15.50;99.90;;;;;;5138460;27;20046;-73
2023/09/05 03:03:16;;;;;;;16.60;12.17;;;15.60;99.90;;;;;;5121872;27;20470;-74
2023/09/05 03:05:43;;;;;;;13.77;10.97;;;15.50;99.90;;;;;;5138563;27;20058;-73
2023/09/05 03:08:08;;;;;;;14.73;11.80;;;15.50;99.90;;;;;;5138269;27;20080;-73
2023/09/05 03:10:34;;;;;;;13.00;10.97;;;15.50;99.90;;;;;;5121198;27;20051;-74
2023/09/05 03:13:00;;;;;;;14.77;12.03;;;15.50;99.90;;;;;;5138082;27;20047;-74
2023/09/05 03:15:25;;;;;;;13.43;10.83;;;15.50;99.90;;;;;;5120428;27;20038;-74
2023/09/05 03:17:51;;;;;;;13.47;11.77;;;15.50;99.90;;;;;;5138381;27;20489;-73
2023/09/05 03:20:18;;;;;;;12.70;10.83;;;15.40;99.90;;;;;;5121165;27;20058;-73
2023/09/05 03:22:44;;;;;;;12.77;10.83;;;15.40;99.90;;;;;;5138391;27;20090;-73
2023/09/05 03:25:10;;;;;;;13.40;12.00;;;15.40;99.90;;;;;;5120847;27;20074;-74
2023/09/05 03:27:36;;;;;;;14.90;11.43;;;15.40;99.90;;;;;;5156448;27;20050;-73
2023/09/05 03:30:02;;;;;;;12.50;11.17;;;15.40;99.90;;;;;;5137712;27;20042;-74
2023/09/05 03:32:28;;;;;;;14.30;11.10;;;15.30;99.90;;;;;;5156476;27;20050;-73
2023/09/05 03:34:53;;;;;;;11.80;10.20;;;15.30;99.90;;;;;;5103941;27;20050;-74
2023/09/05 03:37:19;;;;;;;12.60;10.93;;;15.30;99.90;;;;;;5137503;27;20899;-74
2023/09/05 03:39:45;;;;;;;13.43;10.13;;;15.40;99.90;;;;;;5137675;27;20095;-73
2023/09/05 03:42:11;;;;;;;12.13;10.17;;;15.30;99.90;;;;;;5137575;27;20078;-73
2023/09/05 03:44:36;;;;;;;14.50;10.23;;;15.30;99.90;;;;;;5137652;27;20043;-74
2023/09/05 03:47:02;;;;;;;12.30;10.00;;;15.30;99.90;;;;;;5155436;27;20050;-74
2023/09/05 03:49:28;;;;;;;13.80;10.10;;;15.30;99.90;;;;;;5120715;27;20155;-73
2023/09/05 03:51:57;;;;;;;10.67;9.33;;;15.30;99.90;;;;;;5137667;27;20043;-73
2023/09/05 03:54:23;;;;;;;11.77;9.67;;;15.30;99.90;;;;;;5137258;27;20054;-73
2023/09/05 03:56:48;;;;;;;12.60;9.97;;;15.30;99.90;;;;;;5137344;27;20114;-73
2023/09/05 03:59:15;;;;;;;13.47;10.53;;;15.20;99.90;;;;;;5120196;27;20126;-74
2023/09/05 04:01:41;;;;;;;11.33;10.03;;;15.20;99.90;;;;;;5155792;27;20191;-73
2023/09/05 04:04:09;;;;;;;12.93;10.00;;;15.20;99.90;;;;;;5155261;27;20092;-74
2023/09/05 04:06:37;;;;;;;10.77;9.63;;;15.20;99.90;;;;;;5120388;27;20038;-73
2023/09/05 04:09:03;;;;;;;12.40;9.73;;;15.20;99.90;;;;;;5137194;27;20050;-73
2023/09/05 04:11:28;;;;;;;15.07;10.63;;;15.20;99.90;;;;;;5137028;27;20035;-73
2023/09/05 04:13:54;;;;;;;11.40;9.83;;;15.20;99.90;;;;;;5120005;27;20071;-73
2023/09/05 04:16:20;;;;;;;12.77;10.17;;;15.20;99.90;;;;;;5136363;27;20453;-73
2023/09/05 04:18:45;;;;;;;13.97;10.20;;;15.10;99.90;;;;;;5155507;27;20558;-73
2023/09/05 04:21:11;;;;;;;12.70;10.73;;;15.10;99.90;;;;;;5136841;27;20111;-73
2023/09/05 04:23:37;;;;;;;16.23;12.77;;;15.10;99.90;;;;;;5137197;27;20074;-73
2023/09/05 04:26:03;;;;;;;14.43;12.60;;;15.10;99.90;;;;;;5136906;27;20046;-73
2023/09/05 04:28:30;;;;;;;17.07;13.27;;;15.10;99.90;;;;;;5119514;27;20141;-73
2023/09/05 04:31:00;;;;;;;13.97;12.57;;;15.00;99.90;;;;;;5119618;27;20086;-73
2023/09/05 04:33:27;;;;;;;13.60;12.20;;;15.10;99.90;;;;;;5120268;27;20845;-73
2023/09/05 04:35:53;;;;;;;15.67;11.87;;;15.00;99.90;;;;;;5102874;27;20055;-73
2023/09/05 04:38:18;;;;;;;18.23;12.70;;;15.00;99.90;;;;;;5136324;27;20053;-74
2023/09/05 04:40:44;;;;;;;17.50;12.40;;;15.10;99.90;;;;;;5136933;27;20053;-73
2023/09/05 04:43:10;;;;;;;13.23;11.80;;;15.00;99.90;;;;;;5119506;27;20053;-74
2023/09/05 04:45:36;;;;;;;13.90;11.60;;;15.00;99.90;;;;;;5119772;27;20038;-73
2023/09/05 04:48:01;;;;;;;14.47;11.97;;;15.10;99.90;;;;;;5136428;27;20050;-73
2023/09/05 04:50:27;;;;;;;14.80;12.90;;;15.00;99.90;;;;;;5119364;27;20043;-73
2023/09/05 04:52:53;;;;;;;12.87;11.47;;;15.10;99.90;;;;;;5119594;27;20045;-73
2023/09/05 04:55:18;;;;;;;15.70;12.60;;;15.10;99.90;;;;;;5154597;27;20082;-73
2023/09/05 04:57:44;;;;;;;20.30;13.57;;;15.10;99.90;;;;;;5119609;27;20057;-73
2023/09/05 05:00:13;;;;;;;18.70;13.77;;;15.00;99.90;;;;;;5136407;27;20047;-76
2023/09/05 05:02:39;;;;;;;15.30;12.50;;;15.10;99.90;;;;;;5136222;27;20095;-73
2023/09/05 05:05:06;;;;;;;16.40;13.13;;;15.00;99.90;;;;;;5136368;27;20038;-73
2023/09/05 05:07:32;;;;;;;16.07;13.50;;;15.00;99.90;;;;;;5136291;27;20082;-73
2023/09/05 05:09:58;;;;;;;16.70;13.93;;;15.00;99.90;;;;;;5154716;27;20089;-73
2023/09/05 05:12:24;;;;;;;13.60;12.07;;;15.00;99.90;;;;;;5154403;27;20138;-74
2023/09/05 05:14:50;;;;;;;14.60;12.10;;;14.90;99.90;;;;;;5154775;27;20045;-73
2023/09/05 05:17:15;;;;;;;14.97;11.87;;;14.90;99.90;;;;;;5135982;27;20047;-73
2023/09/05 05:19:41;;;;;;;16.33;12.50;;;14.90;99.90;;;;;;5154005;27;20038;-73
2023/09/05 05:22:07;;;;;;;15.53;11.73;;;14.90;99.90;;;;;;5154536;27;20079;-73
2023/09/05 05:24:33;;;;;;;15.97;12.10;;;15.00;99.90;;;;;;5118775;27;20047;-73
2023/09/05 05:26:59;;;;;;;14.57;11.37;;;15.00;99.90;;;;;;5136188;27;20042;-73
2023/09/05 05:29:26;;;;;;;14.30;11.37;;;15.00;99.90;;;;;;5136020;27;20056;-73
2023/09/05 05:31:51;;;;;;;13.43;11.23;;;15.00;99.90;;;;;;5119353;27;20050;-73
2023/09/05 05:34:17;;;;;;;14.63;9.87;;;15.00;99.90;;;;;;5154171;27;20429;-73
2023/09/05 05:36:43;;;;;;;18.50;10.77;;;15.00;99.90;;;;;;5135561;27;20051;-73
2023/09/05 05:39:09;;;;;;;12.43;10.40;;;15.10;99.90;;;;;;5138618;27;20050;-73
2023/09/05 05:41:34;;;;;;;11.10;9.30;;;15.10;99.90;;;;;;5139997;27;20057;-73
2023/09/05 05:44:00;;;;;;;11.83;10.63;;;15.10;99.90;;;;;;5140056;27;20493;-73
2023/09/05 05:46:26;;;;;;;10.97;9.77;;;15.20;99.90;;;;;;5139870;27;20082;-73
2023/09/05 05:48:52;;;;;;;13.67;10.03;;;15.30;99.90;;;;;;5122888;27;20046;-73
2023/09/05 05:51:18;;;;;;;13.33;9.97;;;15.20;99.90;;;;;;5139467;27;20057;-73
2023/09/05 05:53:44;;;;;;;12.33;10.17;;;15.30;99.90;;;;;;5158307;27;20060;-73
2023/09/05 05:56:10;;;;;;;11.90;9.77;;;15.30;99.90;;;;;;5139685;27;20486;-73
2023/09/05 05:58:36;;;;;;;12.00;9.90;;;15.30;99.90;;;;;;5157988;27;20049;-73
2023/09/05 06:01:03;;;;;;;13.03;10.40;;;15.40;99.90;;;;;;5158208;27;20403;-73
2023/09/05 06:03:29;;;;;;;14.40;11.27;;;15.40;99.90;;;;;;5139508;27;20526;-73
2023/09/05 06:05:55;;;;;;;13.07;10.90;;;15.50;99.90;;;;;;5122358;27;20051;-73
2023/09/05 06:08:21;;;;;;;14.00;11.70;;;15.60;99.90;;;;;;5139499;27;20043;-74
2023/09/05 06:10:47;;;;;;;14.77;11.33;;;15.70;99.90;;;;;;5122899;27;20486;-73
2023/09/05 06:13:13;;;;;;;17.20;12.13;;;16.10;99.90;;;;;;5139750;27;20047;-73
2023/09/05 06:15:39;;;;;;;11.73;9.97;;;17.20;99.90;;;;;;5139225;27;20523;-74
2023/09/05 06:18:06;;;;;;;13.57;10.10;;;18.50;99.90;;;;;;5139642;27;20417;-74
2023/09/05 06:20:34;;;;;;;12.43;9.07;;;19.80;99.90;;;;;;5157582;27;20049;-74
2023/09/05 06:23:01;;;;;;;12.37;9.03;;;20.90;99.90;;;;;;5139782;27;20042;-74
2023/09/05 06:25:30;;;;;;;10.27;8.23;;;21.80;99.90;;;;;;5157517;27;20382;-74
2023/09/05 06:27:56;;;;;;;15.30;8.70;;;22.70;99.90;;;;;;5139670;27;20046;-74
2023/09/05 06:30:25;;;;;;;10.77;8.50;;;23.30;99.90;;;;;;5122012;27;20090;-75
2023/09/05 06:32:50;;;;;;;14.40;8.47;;;24.00;99.90;;;;;;5122456;27;20097;-74
2023/09/05 06:35:16;;;;;;;11.23;7.30;;;24.60;99.90;;;;;;5157335;27;20083;-74
2023/09/05 06:37:42;;;;;;;10.30;6.50;;;25.10;99.90;;;;;;5121902;27;20061;-74
2023/09/05 06:40:12;;;;;;;10.80;7.70;;;25.70;99.90;;;;;;5138956;27;20085;-74
2023/09/05 06:42:47;;;;;;;8.23;6.37;;;26.00;99.90;;;;;;5157142;27;20452;-74
2023/09/05 06:45:13;;;;;;;7.78;6.13;;;26.40;91.00;;;;;;5139242;27;20497;-74
2023/09/05 06:47:38;;;;;;;9.77;6.73;;;26.90;97.30;;;;;;5156990;27;20046;-74
2023/09/05 06:50:05;;;;;;;11.30;6.73;;;27.20;93.70;;;;;;5137186;27;20039;-74
2023/09/05 06:52:31;;;;;;;9.30;6.87;;;27.50;90.20;;;;;;5138600;27;20050;-75
2023/09/05 06:54:57;;;;;;;8.50;6.27;;;28.00;79.70;;;;;;5121312;27;20087;-74
2023/09/05 06:57:23;;;;;;;9.70;6.13;;;28.20;77.90;;;;;;5121329;27;20042;-77
2023/09/05 06:59:52;;;;;;;9.50;6.70;;;28.80;72.90;;;;;;5138735;27;20106;-75
2023/09/05 07:02:18;;;;;;;11.60;5.90;;;28.90;62.60;;;;;;5121774;27;20051;-73
2023/09/05 07:04:44;;;;;;;9.23;6.03;;;29.40;65.90;;;;;;5156415;27;20569;-73
2023/09/05 07:07:10;;;;;;;6.97;5.45;;;29.60;63.10;;;;;;5121181;27;20126;-74
2023/09/05 07:09:36;;;;;;;7.03;5.38;;;29.80;61.50;;;;;;5138123;27;20133;-74
2023/09/05 07:12:04;;;;;;;9.32;5.50;;;30.20;59.90;;;;;;5138581;27;20143;-74
2023/09/05 07:14:30;;;;;;;7.50;6.15;;;30.20;58.50;;;;;;5137946;27;20372;-73
2023/09/05 07:16:56;;;;;;;7.07;5.30;;;30.30;57.20;;;;;;5156626;27;20038;-73
2023/09/05 07:19:22;;;;;;;9.43;5.03;;;30.30;56.30;;;;;;5156643;27;20487;-75
2023/09/05 07:21:48;;;;;;;8.25;5.45;;;30.80;55.90;;;;;;5138002;27;20039;-75
2023/09/05 07:24:14;;;;;;;6.75;4.97;;;31.00;54.80;;;;;;5120274;27;20111;-75
2023/09/05 07:26:41;;;;;;;7.95;4.63;;;31.50;53.90;;;;;;5120916;27;20046;-74
2023/09/05 07:29:10;;;;;;;7.63;5.15;;;31.80;52.60;;;;;;5104148;27;20042;-73
2023/09/05 07:31:38;;;;;;;7.15;4.78;;;32.00;51.80;;;;;;5155791;27;20398;-74
2023/09/05 07:34:04;;;;;;;6.40;5.10;;;32.10;51.40;;;;;;5137865;27;20494;-73
2023/09/05 07:36:31;;;;;;;6.57;5.50;;;32.30;50.50;;;;;;5155695;27;20131;-70
2023/09/05 07:38:58;;;;;;;7.53;5.18;;;32.50;49.50;;;;;;5156235;27;20126;-69
2023/09/05 07:41:24;;;;;;;7.15;5.32;;;32.10;49.80;;;;;;5138020;27;20043;-74
2023/09/05 07:43:50;;;;;;;5.80;4.68;;;32.30;50.10;;;;;;5155836;27;20125;-73
2023/09/05 07:46:16;;;;;;;9.70;5.32;;;32.40;49.70;;;;;;5137563;27;20039;-74
2023/09/05 07:48:42;;;;;;;7.20;4.65;;;32.20;50.00;;;;;;5135578;27;20046;-75
2023/09/05 07:51:07;;;;;;;6.07;4.43;;;31.90;50.50;;;;;;5155457;27;20117;-73
2023/09/05 07:53:37;;;;;;;6.50;4.95;;;31.20;50.90;;;;;;5103691;27;20047;-74
2023/09/05 07:56:04;;;;;;;7.50;4.68;;;30.20;51.80;;;;;;5137577;27;20050;-74
2023/09/05 07:58:30;;;;;;;7.78;4.20;;;29.10;52.80;;;;;;5137476;27;20142;-75
2023/09/05 08:00:56;;;;;;;7.80;4.40;;;28.40;55.30;;;;;;5137483;27;20042;-73
2023/09/05 08:03:26;;;;;;;6.22;4.53;;;27.80;57.70;;;;;;5155985;27;20043;-73
2023/09/05 08:05:53;;;;;;;5.88;4.25;;;27.50;62.70;;;;;;5120280;27;20099;-73
2023/09/05 08:08:20;;;;;;;8.50;4.70;;;26.80;71.50;;;;;;5120399;27;20050;-73
2023/09/05 08:10:46;;;;;;;6.55;4.47;;;26.40;67.90;;;;;;5137210;27;20054;-73
2023/09/05 08:13:13;;;;;;;5.82;4.07;;;26.00;72.60;;;;;;5155999;27;20106;-73
2023/09/05 08:15:41;;;;;;;7.45;3.92;;;25.90;76.70;;;;;;5136861;27;20039;-74
2023/09/05 08:18:08;;;;;;;5.65;3.80;;;;;;;;;;5120516;27;20512;-73
2023/09/05 08:20:33;;;;;;;6.78;4.25;;;25.40;83.80;;;;;;5102838;27;20075;-74
2023/09/05 08:23:01;;;;;;;7.30;4.20;;;25.30;88.00;;;;;;5120212;27;20046;-74
2023/09/05 08:25:27;;;;;;;7.00;4.25;;;25.20;90.60;;;;;;5119844;27;20050;-74
2023/09/05 08:27:56;;;;;;;6.40;3.50;;;25.10;91.30;;;;;;5119136;27;20050;-74
2023/09/05 08:30:24;;;;;;;7.93;3.80;;;25.10;92.70;;;;;;5120194;27;20046;-74
2023/09/05 08:32:55;;;;;;;6.80;3.93;;;25.00;93.40;;;;;;5136967;27;20525;-74
2023/09/05 08:35:21;;;;;;;6.20;3.67;;;24.80;94.20;;;;;;5136842;27;20043;-74
2023/09/05 08:37:46;;;;;;;5.97;3.70;;;24.70;94.00;;;;;;5102891;27;20054;-73
2023/09/05 08:40:13;;;;;;;7.37;4.00;;;24.70;94.20;;;;;;5119731;27;20054;-74
2023/09/05 08:42:39;;;;;;;6.37;4.23;;;24.60;95.40;;;;;;5119606;27;20046;-74
2023/09/05 08:45:11;;;;;;;6.23;3.73;;;24.70;96.60;;;;;;5119829;27;20490;-73
2023/09/05 08:47:38;;;;;;;5.17;3.17;;;24.60;97.90;;;;;;5136712;27;20134;-74
2023/09/05 08:50:05;;;;;;;5.90;3.10;;;24.50;97.60;;;;;;5136919;27;20041;-73
2023/09/05 08:52:33;;;;;;;6.03;3.60;;;24.60;97.90;;;;;;5136590;27;20039;-73
2023/09/05 08:54:59;;;;;;;5.13;3.27;;;24.50;98.00;;;;;;5136385;27;20468;-73
2023/09/05 08:57:27;;;;;;;4.90;3.13;;;24.50;98.40;;;;;;5119082;27;20138;-73
2023/09/05 08:59:56;;;;;;;6.40;3.10;;;24.50;99.00;;;;;;5136552;27;20042;-73
2023/09/05 09:02:23;;;;;;;8.33;3.40;;;24.50;99.90;;;;;;5119507;27;20103;-72
2023/09/05 09:04:56;;;;;;;5.43;3.20;;;24.40;99.90;;;;;;5102607;27;20402;-73
2023/09/05 09:07:27;;;;;;;7.37;3.37;;;24.50;99.90;;;;;;5102902;27;20039;-72
2023/09/05 09:09:54;;;;;;;6.33;2.93;;;24.40;99.90;;;;;;5136436;27;20043;-73
2023/09/05 09:12:30;;;;;;;5.67;2.80;;;24.50;99.90;;;;;;5118758;27;20547;-72
2023/09/05 09:15:12;;;;;;;8.37;2.60;;;24.50;99.90;;;;;;5085338;27;20456;-73
2023/09/05 09:17:47;;;;;;;7.27;3.00;;;24.50;99.90;;;;;;5136556;27;20157;-74
2023/09/05 09:20:13;;;;;;;5.13;2.90;;;24.60;99.90;;;;;;5119584;27;20390;-73
2023/09/05 09:22:41;;;;;;;5.73;3.57;;;24.50;99.90;;;;;;5135756;27;20480;-73
2023/09/05 09:25:23;;;;;;;8.33;3.67;;;24.60;99.90;;;;;;5136174;27;20079;-72
2023/09/05 09:27:53;;;;;;;5.30;3.80;;;24.70;99.90;;;;;;5120476;27;20043;-73
2023/09/05 09:30:27;;;;;;;5.63;3.03;;;24.70;99.90;;;;;;5154874;27;20050;-72
2023/09/05 09:32:54;;;;;;;8.20;3.83;;;24.70;99.90;;;;;;5154497;27;20043;-73
2023/09/05 09:35:21;;;;;;;7.50;3.50;;;24.70;99.90;;;;;;5118771;27;20046;-73
2023/09/05 09:37:47;;;;;;;5.73;2.73;;;24.70;99.90;;;;;;5135817;27;20125;-73
2023/09/05 09:40:16;;;;;;;5.10;3.10;;;24.70;99.90;;;;;;5154606;27;20082;-72
2023/09/05 09:42:45;;;;;;;4.80;2.70;;;24.70;99.90;;;;;;5154192;27;20054;-73
2023/09/05 09:45:11;;;;;;;4.00;2.20;;;24.70;99.90;;;;;;5136012;27;20042;-72
2023/09/05 09:47:46;;;;;;;5.13;2.53;;;24.80;99.90;;;;;;5136344;27;20110;-72
2023/09/05 09:50:12;;;;;;;4.33;2.50;;;24.80;99.90;;;;;;5136609;27;20390;-72
2023/09/05 09:52:44;;;;;;;5.30;2.30;;;25.00;99.90;;;;;;5136307;27;20089;-72
2023/09/05 09:55:13;;;;;;;5.97;2.67;;;25.00;99.90;;;;;;5154142;27;20513;-72
2023/09/05 09:57:55;;;;;;;8.80;2.93;;;25.00;99.90;;;;;;5154471;27;20133;-72
2023/09/05 10:00:23;;;;;;;4.90;2.87;;;25.10;99.90;;;;;;5154480;27;20057;-72
2023/09/05 10:02:49;;;;;;;3.67;2.20;;;25.10;99.90;;;;;;5135840;27;20046;-73
2023/09/05 10:05:17;;;;;;;6.80;2.60;;;25.10;99.90;;;;;;5154376;27;20046;-72
2023/09/05 10:07:43;;;;;;;5.80;2.40;;;25.10;99.90;;;;;;5119082;27;20042;-72
2023/09/05 10:10:15;;;;;;;3.83;2.17;;;25.20;99.90;;;;;;5153664;27;20102;-72
2023/09/05 10:12:45;;;;;;;5.63;2.38;;;25.20;99.90;;;;;;5136455;27;20042;-73
2023/09/05 10:15:15;;;;;;;5.80;2.10;;;25.20;99.90;;;;;;5136035;27;20066;-72
2023/09/05 10:17:42;;;;;;;4.80;2.10;;;25.30;99.90;;;;;;5154336;27;20094;-72
2023/09/05 10:20:14;;;;;;;4.00;2.10;;;25.30;99.90;;;;;;5135786;27;20058;-72
2023/09/05 10:22:40;;;;;;;5.47;2.20;;;25.40;99.50;;;;;;5136450;27;20043;-72
2023/09/05 10:25:09;;;;;;;3.90;1.80;;;25.50;98.70;;;;;;5156152;27;20058;-72
2023/09/05 10:27:35;;;;;;;5.73;2.23;;;25.50;99.10;;;;;;5139442;27;20113;-72
2023/09/05 10:30:01;;;;;;;4.87;2.33;;;25.50;98.60;;;;;;5139127;27;20498;-73
2023/09/05 10:32:26;;;;;;;3.67;1.90;;;25.60;97.60;;;;;;5105621;27;20079;-73
2023/09/05 10:34:55;;;;;;;5.57;2.10;;;25.60;97.60;;;;;;5139125;27;20505;-73
2023/09/05 10:37:22;;;;;;;3.40;2.07;;;25.60;96.60;;;;;;5156912;27;20086;-73
2023/09/05 10:39:57;;;;;;;3.97;2.27;;;25.60;97.20;;;;;;5121857;27;20132;-73
2023/09/05 10:42:32;;;;;;;5.10;2.20;;;25.70;96.60;;;;;;5139356;27;20054;-72
2023/09/05 10:45:21;;;;;;;4.27;2.33;;;25.70;97.50;;;;;;5138657;27;20486;-72
2023/09/05 10:47:49;;;;;;;5.57;2.37;;;25.70;96.70;;;;;;5121878;27;20095;-71
2023/09/05 10:50:19;;;;;;;5.27;2.17;;;25.80;97.50;;;;;;5138863;27;20050;-71
2023/09/05 10:53:12;;;;;;;5.47;2.33;;;25.80;97.40;;;;;;5122058;27;20051;-71
2023/09/05 10:55:46;;;;;;;4.73;2.30;;;25.80;96.40;;;;;;5125679;27;20574;-71
2023/09/05 10:58:31;;;;;;;;;;;25.90;96.70;;;;;;5139347;27;20047;-71
2023/09/05 11:01:00;;;;;;;3.57;2.23;;;25.90;97.50;;;;;;5138504;27;19923;-71
2023/09/05 11:03:36;;;;;;;3.97;2.13;;;26.00;96.90;;;;;;5138628;27;20047;-71
2023/09/05 11:06:11;;;;;;;4.17;2.17;;;26.00;96.60;;;;;;5138613;27;20069;-71
2023/09/05 11:08:37;;;;;;;6.27;2.40;;;26.10;95.50;;;;;;5157271;27;20042;-70
2023/09/05 11:11:04;;;;;;;3.27;1.70;;;26.10;95.20;;;;;;5156533;27;20153;-70
2023/09/05 11:13:30;;;;;;;3.17;1.60;;;26.20;95.10;;;;;;5138574;27;20053;-70
2023/09/05 11:16:01;;;;;;;3.73;1.90;;;26.20;93.00;;;;;;5156082;27;20126;-70
2023/09/05 11:18:27;;;;;;;3.80;1.90;;;26.20;93.10;;;;;;5121485;27;20455;-70
2023/09/05 11:20:53;;;;;;;3.87;1.83;;;26.20;92.90;;;;;;5156378;27;20047;-70
2023/09/05 11:23:25;;;;;;;4.27;2.10;;;26.30;92.40;;;;;;5156629;27;20390;-70
2023/09/05 11:26:02;;;;;;;4.90;2.00;;;26.30;92.00;;;;;;5156841;27;20043;-69
2023/09/05 11:28:27;;;;;;;3.50;1.83;;;26.40;90.60;;;;;;5156164;27;20502;-70
2023/09/05 11:30:57;;;;;;;3.00;1.77;;;26.40;87.80;;;;;;5156226;27;20098;-70
2023/09/05 11:33:25;;;;;;;3.40;1.70;;;26.50;87.50;;;;;;5104597;27;20050;-68
2023/09/05 11:35:51;;;;;;;4.83;1.67;;;26.40;86.80;;;;;;5155556;27;20066;-67
2023/09/05 11:38:20;;;;;;;3.30;1.80;;;26.50;86.40;;;;;;5155885;27;20034;-67
2023/09/05 11:40:52;;;;;;;4.00;1.57;;;26.50;82.20;;;;;;5137634;27;20428;-67
2023/09/05 11:43:18;;;;;;;6.33;1.63;;;26.60;81.00;;;;;;5135344;27;20059;-67
2023/09/05 11:45:45;;;;;;;3.47;1.60;;;26.70;76.80;;;;;;5155888;27;20038;-66
2023/09/05 11:48:16;;;;;;;4.20;1.90;;;26.70;76.20;;;;;;5137154;27;20402;-66
2023/09/05 11:50:45;;;;;;;5.10;1.63;;;26.70;77.00;;;;;;5136841;27;20043;-67
2023/09/05 11:53:14;;;;;;;6.57;1.77;;;26.80;74.70;;;;;;5155596;27;20051;-66
2023/09/05 11:55:40;;;;;;;3.07;1.73;;;26.70;74.30;;;;;;5155913;27;20049;-69
2023/09/05 11:58:06;;;;;;;3.40;1.60;;;26.70;74.30;;;;;;5137534;27;20137;-69
2023/09/05 12:00:33;;;;;;;3.57;1.50;;;26.70;75.10;;;;;;5155891;27;20039;-69
2023/09/05 12:03:02;;;;;;;3.20;1.57;;;26.70;74.80;;;;;;5155226;27;20107;-70
2023/09/05 12:05:35;;;;;;;3.37;1.50;;;26.70;74.30;;;;;;5155801;27;20577;-70
2023/09/05 12:08:05;;;;;;;2.93;1.60;;;26.70;75.20;;;;;;5155609;27;20416;-70
2023/09/05 12:10:38;;;;;;;2.50;1.40;;;26.70;72.40;;;;;;5155778;27;20078;-70
2023/09/05 12:13:04;;;;;;;5.40;1.60;;;26.70;73.20;;;;;;5155595;27;20454;-70
2023/09/05 12:15:37;;;;;;;3.33;1.13;;;26.70;74.40;;;;;;5155779;27;20078;-70
2023/09/05 12:18:06;;;;;;;3.13;1.77;;;26.70;73.90;;;;;;5155272;27;20050;-70
2023/09/05 12:20:33;;;;;;;3.70;1.30;;;26.80;73.10;;;;;;5155495;27;20047;-70
2023/09/05 12:22:59;;;;;;;2.97;1.43;;;26.80;71.90;;;;;;5136899;27;20043;-71
2023/09/05 12:25:28;;;;;;;2.90;1.60;;;26.90;70.90;;;;;;5155771;27;20080;-70
2023/09/05 12:27:55;;;;;;;3.80;1.50;;;26.90;70.70;;;;;;5137254;27;20046;-70
2023/09/05 12:30:29;;;;;;;4.10;1.50;;;26.90;71.30;;;;;;5155003;27;20053;-70
2023/09/05 12:33:00;;;;;;;3.17;1.63;;;26.90;71.20;;;;;;5155446;27;20039;-70
2023/09/05 12:35:28;;;;;;;2.30;1.40;;;26.90;71.10;;;;;;5155370;27;20081;-70
2023/09/05 12:37:58;;;;;;;2.80;1.50;;;26.90;72.00;;;;;;5155395;27;20452;-70
2023/09/05 12:40:24;;;;;;;3.13;1.40;;;26.90;70.90;;;;;;5155011;27;20078;-71
2023/09/05 12:42:50;;;;;;;3.33;1.60;;;26.90;71.90;;;;;;5155168;27;20498;-70